SHT9G EGPH-EGLL
Flight info
| Callsign | SHT9G |
|---|---|
| Flight time | 0h 59m |
| Altitude | 33000 |
| Route | GOSAM DCT FENIK L612 ELBUS DCT LAKEY DCT NUGRA |
| Aircraft | A320/M-SDE3FGHIJ1RWXY/S |
Departure
| Time | 2026-04-20 20:17 |
|---|---|
| Airport | Edinburgh Airport (EGPH) |
Arrival
| Time | 2026-04-20 21:16 |
|---|---|
| Airport | London Heathrow Airport (EGLL) |
| Time | Latitude | Longitude | Altitude | Speed | Heading |
|---|---|---|---|---|---|
| 2026-04-20 19:59 | 55.94943 | -3.36360 | 114 ft | 0 kts | 149° |
| 2026-04-20 20:10 | 55.94957 | -3.36374 | 112 ft | 4 kts | 153° |
| 2026-04-20 20:11 | 55.94982 | -3.36393 | 114 ft | 4 kts | 167° |
| 2026-04-20 20:11 | 55.95007 | -3.36396 | 115 ft | 4 kts | 202° |
| 2026-04-20 20:11 | 55.95020 | -3.36380 | 115 ft | 1 kts | 239° |
| 2026-04-20 20:11 | 55.95021 | -3.36375 | 115 ft | 0 kts | 239° |
| 2026-04-20 20:13 | 55.95003 | -3.36429 | 113 ft | 9 kts | 239° |
| 2026-04-20 20:13 | 55.94962 | -3.36548 | 112 ft | 13 kts | 239° |
| 2026-04-20 20:13 | 55.94908 | -3.36710 | 115 ft | 14 kts | 239° |
| 2026-04-20 20:13 | 55.94923 | -3.36881 | 116 ft | 16 kts | 276° |
| 2026-04-20 20:14 | 55.94871 | -3.37060 | 113 ft | 18 kts | 239° |
| 2026-04-20 20:14 | 55.94801 | -3.37264 | 113 ft | 20 kts | 239° |
| 2026-04-20 20:14 | 55.94735 | -3.37459 | 115 ft | 18 kts | 239° |
| 2026-04-20 20:14 | 55.94672 | -3.37647 | 115 ft | 17 kts | 239° |
| 2026-04-20 20:15 | 55.94604 | -3.37844 | 114 ft | 20 kts | 238° |
| 2026-04-20 20:15 | 55.94535 | -3.38048 | 112 ft | 16 kts | 239° |
| 2026-04-20 20:15 | 55.94471 | -3.38236 | 113 ft | 19 kts | 239° |
| 2026-04-20 20:15 | 55.94411 | -3.38414 | 114 ft | 15 kts | 239° |
| 2026-04-20 20:16 | 55.94351 | -3.38592 | 115 ft | 18 kts | 239° |
| 2026-04-20 20:16 | 55.94296 | -3.38753 | 111 ft | 13 kts | 239° |
| 2026-04-20 20:16 | 55.94288 | -3.38864 | 113 ft | 9 kts | 311° |
| 2026-04-20 20:16 | 55.94352 | -3.38935 | 112 ft | 13 kts | 328° |
| 2026-04-20 20:17 | 55.94442 | -3.38888 | 113 ft | 27 kts | 56° |
| 2026-04-20 20:17 | 55.94677 | -3.38201 | 112 ft | 98 kts | 58° |
| 2026-04-20 20:17 | 55.95117 | -3.36901 | 236 ft | 137 kts | 60° |
| 2026-04-20 20:17 | 55.95606 | -3.35418 | 834 ft | 139 kts | 59° |
| 2026-04-20 20:18 | 55.96173 | -3.33999 | 1511 ft | 145 kts | 47° |
| 2026-04-20 20:18 | 55.96690 | -3.33161 | 1771 ft | 159 kts | 45° |
| 2026-04-20 20:18 | 55.97892 | -3.31221 | 2212 ft | 190 kts | 45° |
| 2026-04-20 20:18 | 55.98937 | -3.29537 | 2675 ft | 215 kts | 44° |
| 2026-04-20 20:19 | 55.99757 | -3.28434 | 3005 ft | 233 kts | 29° |
| 2026-04-20 20:19 | 56.01426 | -3.28048 | 3717 ft | 256 kts | 349° |
| 2026-04-20 20:19 | 56.03002 | -3.29676 | 4696 ft | 269 kts | 313° |
| 2026-04-20 20:19 | 56.03797 | -3.32661 | 5684 ft | 277 kts | 278° |
| 2026-04-20 20:20 | 56.03669 | -3.36155 | 6703 ft | 281 kts | 256° |
| 2026-04-20 20:20 | 56.03098 | -3.39473 | 7630 ft | 284 kts | 249° |
| 2026-04-20 20:20 | 56.02390 | -3.42797 | 8595 ft | 288 kts | 247° |
| 2026-04-20 20:20 | 56.01689 | -3.46163 | 9557 ft | 290 kts | 249° |
| 2026-04-20 20:21 | 56.01042 | -3.49607 | 10476 ft | 294 kts | 250° |
| 2026-04-20 20:21 | 56.00428 | -3.53240 | 10861 ft | 317 kts | 252° |
| 2026-04-20 20:21 | 55.99827 | -3.57145 | 11334 ft | 332 kts | 253° |
| 2026-04-20 20:21 | 55.99245 | -3.61170 | 12068 ft | 338 kts | 254° |
| 2026-04-20 20:22 | 55.98666 | -3.65281 | 12833 ft | 343 kts | 254° |
| 2026-04-20 20:22 | 55.98082 | -3.69448 | 13526 ft | 350 kts | 254° |
| 2026-04-20 20:22 | 55.97486 | -3.73676 | 13411 ft | 349 kts | 254° |
| 2026-04-20 20:22 | 55.96887 | -3.77880 | 13452 ft | 351 kts | 254° |
| 2026-04-20 20:23 | 55.96278 | -3.82125 | 14185 ft | 354 kts | 253° |
| 2026-04-20 20:23 | 55.95662 | -3.86395 | 14909 ft | 357 kts | 253° |
| 2026-04-20 20:23 | 55.94797 | -3.90537 | 15563 ft | 357 kts | 237° |
| 2026-04-20 20:23 | 55.93199 | -3.93859 | 16205 ft | 353 kts | 214° |
| 2026-04-20 20:24 | 55.91053 | -3.95887 | 16867 ft | 349 kts | 193° |
| 2026-04-20 20:24 | 55.88667 | -3.96344 | 17552 ft | 344 kts | 171° |
| 2026-04-20 20:24 | 55.86385 | -3.95203 | 18231 ft | 342 kts | 152° |
| 2026-04-20 20:24 | 55.84264 | -3.93247 | 18839 ft | 345 kts | 149° |
| 2026-04-20 20:25 | 55.82145 | -3.91209 | 19435 ft | 348 kts | 149° |
| 2026-04-20 20:25 | 55.80006 | -3.89138 | 20040 ft | 351 kts | 149° |
| 2026-04-20 20:25 | 55.77859 | -3.87053 | 20646 ft | 354 kts | 149° |
| 2026-04-20 20:25 | 55.75690 | -3.84942 | 21230 ft | 357 kts | 149° |
| 2026-04-20 20:26 | 55.73526 | -3.82832 | 21799 ft | 360 kts | 149° |
| 2026-04-20 20:26 | 55.71293 | -3.80648 | 22336 ft | 364 kts | 149° |
| 2026-04-20 20:26 | 55.69101 | -3.78478 | 22819 ft | 368 kts | 149° |
| 2026-04-20 20:26 | 55.66824 | -3.76218 | 23359 ft | 372 kts | 149° |
| 2026-04-20 20:27 | 55.64585 | -3.73989 | 23900 ft | 375 kts | 149° |
| 2026-04-20 20:27 | 55.62302 | -3.71712 | 24332 ft | 378 kts | 149° |
| 2026-04-20 20:27 | 55.60000 | -3.69410 | 24764 ft | 382 kts | 149° |
| 2026-04-20 20:27 | 55.57681 | -3.67088 | 25187 ft | 385 kts | 149° |
| 2026-04-20 20:28 | 55.55342 | -3.64743 | 25614 ft | 388 kts | 149° |
| 2026-04-20 20:28 | 55.52981 | -3.62378 | 26042 ft | 391 kts | 149° |
| 2026-04-20 20:28 | 55.50525 | -3.60260 | 26425 ft | 396 kts | 161° |
| 2026-04-20 20:28 | 55.47814 | -3.59229 | 26843 ft | 400 kts | 169° |
| 2026-04-20 20:29 | 55.45056 | -3.58398 | 27225 ft | 404 kts | 169° |
| 2026-04-20 20:29 | 55.42274 | -3.57516 | 27585 ft | 409 kts | 169° |
| 2026-04-20 20:29 | 55.39471 | -3.56622 | 28001 ft | 412 kts | 169° |
| 2026-04-20 20:29 | 55.36637 | -3.55713 | 28417 ft | 414 kts | 169° |
| 2026-04-20 20:30 | 55.33800 | -3.54800 | 28828 ft | 417 kts | 169° |
| 2026-04-20 20:30 | 55.30929 | -3.53869 | 29206 ft | 420 kts | 169° |
| 2026-04-20 20:30 | 55.28043 | -3.52930 | 29596 ft | 424 kts | 169° |
| 2026-04-20 20:30 | 55.25129 | -3.51981 | 29989 ft | 427 kts | 169° |
| 2026-04-20 20:31 | 55.22197 | -3.51018 | 30406 ft | 430 kts | 170° |
| 2026-04-20 20:31 | 55.19243 | -3.50034 | 30698 ft | 434 kts | 169° |
| 2026-04-20 20:31 | 55.16257 | -3.49006 | 30974 ft | 439 kts | 169° |
| 2026-04-20 20:31 | 55.13284 | -3.48001 | 31278 ft | 442 kts | 169° |
| 2026-04-20 20:32 | 55.10250 | -3.46989 | 31584 ft | 445 kts | 169° |
| 2026-04-20 20:32 | 55.07159 | -3.45968 | 31889 ft | 449 kts | 169° |
| 2026-04-20 20:32 | 55.04073 | -3.44952 | 32220 ft | 451 kts | 169° |
| 2026-04-20 20:32 | 55.01043 | -3.43572 | 32626 ft | 452 kts | 161° |
| 2026-04-20 20:33 | 54.98062 | -3.41791 | 33047 ft | 452 kts | 161° |
| 2026-04-20 20:33 | 54.95117 | -3.40031 | 33315 ft | 455 kts | 161° |
| 2026-04-20 20:33 | 54.89132 | -3.36455 | 33370 ft | 462 kts | 161° |
| 2026-04-20 20:34 | 54.82944 | -3.32767 | 33369 ft | 474 kts | 161° |
| 2026-04-20 20:34 | 54.76675 | -3.29029 | 33373 ft | 477 kts | 161° |
| 2026-04-20 20:35 | 54.70403 | -3.25313 | 33369 ft | 476 kts | 162° |
| 2026-04-20 20:35 | 54.64137 | -3.21619 | 33385 ft | 477 kts | 162° |
| 2026-04-20 20:36 | 54.57864 | -3.17926 | 33360 ft | 476 kts | 162° |
| 2026-04-20 20:36 | 54.51582 | -3.14236 | 33365 ft | 477 kts | 162° |
| 2026-04-20 20:37 | 54.45298 | -3.10545 | 33361 ft | 476 kts | 162° |
| 2026-04-20 20:37 | 54.39023 | -3.06881 | 33369 ft | 476 kts | 162° |
| 2026-04-20 20:38 | 54.32749 | -3.03252 | 33365 ft | 476 kts | 162° |
| 2026-04-20 20:38 | 54.26475 | -2.99635 | 33358 ft | 475 kts | 162° |
| 2026-04-20 20:39 | 54.20213 | -2.96016 | 33345 ft | 476 kts | 162° |
| 2026-04-20 20:39 | 54.13934 | -2.92379 | 33334 ft | 476 kts | 162° |
| 2026-04-20 20:40 | 54.07649 | -2.88770 | 33338 ft | 477 kts | 162° |
| 2026-04-20 20:40 | 54.01385 | -2.85195 | 33336 ft | 477 kts | 163° |
| 2026-04-20 20:41 | 53.95042 | -2.81589 | 33330 ft | 478 kts | 163° |
| 2026-04-20 20:41 | 53.88781 | -2.78030 | 33326 ft | 478 kts | 163° |
| 2026-04-20 20:42 | 53.82459 | -2.74453 | 33331 ft | 479 kts | 163° |
| 2026-04-20 20:42 | 53.76140 | -2.70885 | 33337 ft | 479 kts | 163° |
| 2026-04-20 20:43 | 53.69808 | -2.67329 | 33321 ft | 479 kts | 164° |
| 2026-04-20 20:43 | 53.63477 | -2.63773 | 33321 ft | 480 kts | 164° |
| 2026-04-20 20:44 | 53.57123 | -2.60220 | 33327 ft | 481 kts | 164° |
| 2026-04-20 20:44 | 53.50759 | -2.56672 | 33337 ft | 481 kts | 164° |
| 2026-04-20 20:45 | 53.44405 | -2.53142 | 33340 ft | 481 kts | 164° |
| 2026-04-20 20:45 | 53.38044 | -2.49614 | 33356 ft | 481 kts | 164° |
| 2026-04-20 20:46 | 53.31685 | -2.46096 | 33366 ft | 481 kts | 164° |
| 2026-04-20 20:46 | 53.25327 | -2.42596 | 33359 ft | 481 kts | 164° |
| 2026-04-20 20:47 | 53.18965 | -2.39115 | 33334 ft | 481 kts | 164° |
| 2026-04-20 20:47 | 53.12611 | -2.35634 | 33334 ft | 472 kts | 165° |
| 2026-04-20 20:48 | 53.09581 | -2.33975 | 33337 ft | 456 kts | 165° |
| 2026-04-20 20:48 | 53.06603 | -2.32346 | 33339 ft | 447 kts | 165° |
| 2026-04-20 20:48 | 53.00952 | -2.28264 | 33030 ft | 441 kts | 150° |
| 2026-04-20 20:49 | 52.98358 | -2.25548 | 32746 ft | 438 kts | 150° |
| 2026-04-20 20:49 | 52.95780 | -2.22842 | 32483 ft | 439 kts | 150° |
| 2026-04-20 20:49 | 52.93203 | -2.20136 | 32229 ft | 439 kts | 150° |
| 2026-04-20 20:49 | 52.90630 | -2.17441 | 31975 ft | 437 kts | 150° |
| 2026-04-20 20:50 | 52.88056 | -2.14752 | 31726 ft | 436 kts | 150° |
| 2026-04-20 20:50 | 52.85493 | -2.12082 | 31476 ft | 434 kts | 150° |
| 2026-04-20 20:50 | 52.82944 | -2.09426 | 31227 ft | 433 kts | 151° |
| 2026-04-20 20:50 | 52.80405 | -2.06777 | 30909 ft | 428 kts | 151° |
| 2026-04-20 20:51 | 52.77897 | -2.04164 | 30467 ft | 427 kts | 151° |
| 2026-04-20 20:51 | 52.75383 | -2.01554 | 29981 ft | 424 kts | 151° |
| 2026-04-20 20:51 | 52.72895 | -1.98976 | 29569 ft | 420 kts | 151° |
| 2026-04-20 20:51 | 52.70431 | -1.96424 | 29158 ft | 417 kts | 151° |
| 2026-04-20 20:52 | 52.67973 | -1.93883 | 28757 ft | 414 kts | 151° |
| 2026-04-20 20:52 | 52.65544 | -1.91373 | 28357 ft | 411 kts | 151° |
| 2026-04-20 20:52 | 52.63135 | -1.88883 | 27947 ft | 407 kts | 151° |
| 2026-04-20 20:52 | 52.60740 | -1.86416 | 27559 ft | 404 kts | 151° |
| 2026-04-20 20:53 | 52.58369 | -1.83978 | 27165 ft | 401 kts | 150° |
| 2026-04-20 20:53 | 52.56004 | -1.81554 | 26762 ft | 398 kts | 150° |
| 2026-04-20 20:53 | 52.53661 | -1.79154 | 26362 ft | 396 kts | 150° |
| 2026-04-20 20:53 | 52.51331 | -1.76767 | 25944 ft | 393 kts | 150° |
| 2026-04-20 20:54 | 52.49017 | -1.74404 | 25530 ft | 391 kts | 152° |
| 2026-04-20 20:54 | 52.46715 | -1.72056 | 25121 ft | 389 kts | 152° |
| 2026-04-20 20:54 | 52.44423 | -1.69718 | 24692 ft | 388 kts | 151° |
| 2026-04-20 20:54 | 52.42133 | -1.67385 | 24263 ft | 386 kts | 151° |
| 2026-04-20 20:55 | 52.39856 | -1.65066 | 23821 ft | 385 kts | 151° |
| 2026-04-20 20:55 | 52.37583 | -1.62753 | 23350 ft | 383 kts | 151° |
| 2026-04-20 20:55 | 52.35332 | -1.60463 | 22922 ft | 379 kts | 150° |
| 2026-04-20 20:55 | 52.33104 | -1.58199 | 22495 ft | 376 kts | 150° |
| 2026-04-20 20:56 | 52.30888 | -1.55952 | 22076 ft | 373 kts | 150° |
| 2026-04-20 20:56 | 52.28688 | -1.53721 | 21661 ft | 370 kts | 150° |
| 2026-04-20 20:56 | 52.26515 | -1.51524 | 21226 ft | 367 kts | 151° |
| 2026-04-20 20:56 | 52.24353 | -1.49343 | 20829 ft | 364 kts | 151° |
| 2026-04-20 20:57 | 52.22209 | -1.47165 | 20427 ft | 362 kts | 148° |
| 2026-04-20 20:57 | 52.20255 | -1.44663 | 20038 ft | 360 kts | 140° |
| 2026-04-20 20:57 | 52.18368 | -1.42014 | 19682 ft | 356 kts | 140° |
| 2026-04-20 20:57 | 52.16495 | -1.39393 | 19322 ft | 353 kts | 140° |
| 2026-04-20 20:58 | 52.14642 | -1.36807 | 18971 ft | 349 kts | 140° |
| 2026-04-20 20:58 | 52.12806 | -1.34248 | 18610 ft | 346 kts | 140° |
| 2026-04-20 20:58 | 52.10986 | -1.31715 | 18218 ft | 342 kts | 140° |
| 2026-04-20 20:58 | 52.09188 | -1.29218 | 17879 ft | 338 kts | 140° |
| 2026-04-20 20:59 | 52.07415 | -1.26760 | 17529 ft | 334 kts | 140° |
| 2026-04-20 20:59 | 52.05653 | -1.24317 | 17197 ft | 332 kts | 140° |
| 2026-04-20 20:59 | 52.03901 | -1.21889 | 16844 ft | 330 kts | 140° |
| 2026-04-20 20:59 | 52.02151 | -1.19470 | 16489 ft | 330 kts | 140° |
| 2026-04-20 21:00 | 52.00396 | -1.17048 | 16167 ft | 329 kts | 140° |
| 2026-04-20 21:00 | 51.98655 | -1.14647 | 15834 ft | 328 kts | 140° |
| 2026-04-20 21:00 | 51.96927 | -1.12260 | 15502 ft | 326 kts | 139° |
| 2026-04-20 21:00 | 51.95207 | -1.09885 | 15127 ft | 325 kts | 139° |
| 2026-04-20 21:01 | 51.93458 | -1.07468 | 14384 ft | 336 kts | 139° |
| 2026-04-20 21:01 | 51.91663 | -1.04996 | 13773 ft | 339 kts | 139° |
| 2026-04-20 21:01 | 51.89879 | -1.02542 | 13394 ft | 334 kts | 139° |
| 2026-04-20 21:01 | 51.88708 | -1.00934 | 13241 ft | 328 kts | 139° |
| 2026-04-20 21:02 | 51.86998 | -0.98587 | 13115 ft | 317 kts | 139° |
| 2026-04-20 21:02 | 51.85443 | -0.96151 | 12984 ft | 306 kts | 127° |
| 2026-04-20 21:02 | 51.84378 | -0.93265 | 12840 ft | 295 kts | 114° |
| 2026-04-20 21:02 | 51.83493 | -0.90328 | 12717 ft | 286 kts | 114° |
| 2026-04-20 21:03 | 51.82627 | -0.87488 | 12584 ft | 278 kts | 115° |
| 2026-04-20 21:03 | 51.81777 | -0.84714 | 12389 ft | 273 kts | 115° |
| 2026-04-20 21:03 | 51.80937 | -0.81978 | 12123 ft | 270 kts | 114° |
| 2026-04-20 21:03 | 51.80106 | -0.79268 | 11834 ft | 270 kts | 115° |
| 2026-04-20 21:04 | 51.79275 | -0.76564 | 11548 ft | 269 kts | 115° |
| 2026-04-20 21:04 | 51.78446 | -0.73869 | 11276 ft | 267 kts | 114° |
| 2026-04-20 21:04 | 51.77618 | -0.71181 | 11009 ft | 266 kts | 114° |
| 2026-04-20 21:04 | 51.76797 | -0.68517 | 10745 ft | 264 kts | 115° |
| 2026-04-20 21:05 | 51.75982 | -0.65871 | 10525 ft | 261 kts | 114° |
| 2026-04-20 21:05 | 51.75169 | -0.63227 | 10116 ft | 265 kts | 114° |
| 2026-04-20 21:05 | 51.74340 | -0.60537 | 9652 ft | 270 kts | 114° |
| 2026-04-20 21:05 | 51.73448 | -0.57881 | 9206 ft | 267 kts | 125° |
| 2026-04-20 21:06 | 51.72106 | -0.55872 | 8778 ft | 264 kts | 148° |
| 2026-04-20 21:06 | 51.70392 | -0.54884 | 8333 ft | 262 kts | 172° |
| 2026-04-20 21:06 | 51.68588 | -0.54742 | 7854 ft | 257 kts | 178° |
| 2026-04-20 21:06 | 51.66819 | -0.54651 | 7421 ft | 253 kts | 177° |
| 2026-04-20 21:07 | 51.65058 | -0.54554 | 7135 ft | 252 kts | 177° |
| 2026-04-20 21:07 | 51.63312 | -0.54655 | 6881 ft | 250 kts | 193° |
| 2026-04-20 21:07 | 51.61759 | -0.55793 | 6628 ft | 245 kts | 220° |
| 2026-04-20 21:07 | 51.60668 | -0.57828 | 6359 ft | 238 kts | 245° |
| 2026-04-20 21:08 | 51.60199 | -0.60319 | 6097 ft | 230 kts | 268° |
| 2026-04-20 21:08 | 51.60074 | -0.62856 | 5835 ft | 227 kts | 269° |
| 2026-04-20 21:08 | 51.59946 | -0.65370 | 5573 ft | 224 kts | 269° |
| 2026-04-20 21:08 | 51.59799 | -0.67863 | 5317 ft | 223 kts | 268° |
| 2026-04-20 21:09 | 51.59642 | -0.70335 | 5062 ft | 222 kts | 268° |
| 2026-04-20 21:09 | 51.59484 | -0.72792 | 4791 ft | 220 kts | 267° |
| 2026-04-20 21:09 | 51.59328 | -0.75201 | 4523 ft | 218 kts | 266° |
| 2026-04-20 21:09 | 51.58859 | -0.77480 | 4253 ft | 214 kts | 237° |
| 2026-04-20 21:10 | 51.57774 | -0.79085 | 4001 ft | 213 kts | 205° |
| 2026-04-20 21:10 | 51.56370 | -0.79638 | 3752 ft | 207 kts | 176° |
| 2026-04-20 21:10 | 51.54927 | -0.79553 | 3494 ft | 207 kts | 174° |
| 2026-04-20 21:10 | 51.53495 | -0.79470 | 3232 ft | 206 kts | 174° |
| 2026-04-20 21:11 | 51.52064 | -0.79391 | 3040 ft | 202 kts | 174° |
| 2026-04-20 21:11 | 51.50696 | -0.79323 | 3012 ft | 189 kts | 174° |
| 2026-04-20 21:11 | 51.49429 | -0.79260 | 3006 ft | 178 kts | 173° |
| 2026-04-20 21:11 | 51.48299 | -0.78702 | 3010 ft | 173 kts | 137° |
| 2026-04-20 21:12 | 51.47640 | -0.77119 | 3013 ft | 173 kts | 98° |
| 2026-04-20 21:12 | 51.47609 | -0.75200 | 3009 ft | 172 kts | 86° |
| 2026-04-20 21:12 | 51.47622 | -0.73284 | 3005 ft | 172 kts | 87° |
| 2026-04-20 21:12 | 51.47633 | -0.71382 | 2911 ft | 172 kts | 87° |
| 2026-04-20 21:13 | 51.47644 | -0.69467 | 2722 ft | 171 kts | 87° |
| 2026-04-20 21:13 | 51.47655 | -0.67564 | 2502 ft | 170 kts | 87° |
| 2026-04-20 21:13 | 51.47665 | -0.65687 | 2273 ft | 166 kts | 87° |
| 2026-04-20 21:13 | 51.47675 | -0.63885 | 2050 ft | 157 kts | 87° |
| 2026-04-20 21:14 | 51.47684 | -0.62151 | 1836 ft | 154 kts | 87° |
| 2026-04-20 21:14 | 51.47693 | -0.60444 | 1620 ft | 153 kts | 86° |
| 2026-04-20 21:14 | 51.47701 | -0.58776 | 1422 ft | 147 kts | 86° |
| 2026-04-20 21:14 | 51.47709 | -0.57167 | 1213 ft | 140 kts | 86° |
| 2026-04-20 21:15 | 51.47716 | -0.55658 | 1036 ft | 134 kts | 86° |
| 2026-04-20 21:15 | 51.47723 | -0.54173 | 841 ft | 132 kts | 87° |
| 2026-04-20 21:15 | 51.47730 | -0.52696 | 656 ft | 133 kts | 87° |
| 2026-04-20 21:15 | 51.47737 | -0.51210 | 468 ft | 133 kts | 87° |
| 2026-04-20 21:16 | 51.47742 | -0.49715 | 276 ft | 134 kts | 88° |
| 2026-04-20 21:16 | 51.47749 | -0.48222 | 106 ft | 133 kts | 87° |
| 2026-04-20 21:16 | 51.47757 | -0.46964 | 92 ft | 77 kts | 90° |
| 2026-04-20 21:16 | 51.47757 | -0.46457 | 89 ft | 36 kts | 90° |
| 2026-04-20 21:17 | 51.47697 | -0.46133 | 88 ft | 28 kts | 144° |
| 2026-04-20 21:17 | 51.47602 | -0.46111 | 87 ft | 14 kts | 241° |
| 2026-04-20 21:17 | 51.47594 | -0.46284 | 86 ft | 18 kts | 270° |
| 2026-04-20 21:17 | 51.47594 | -0.46524 | 86 ft | 24 kts | 271° |
| 2026-04-20 21:18 | 51.47591 | -0.46795 | 86 ft | 20 kts | 266° |
| 2026-04-20 21:18 | 51.47583 | -0.47027 | 90 ft | 22 kts | 270° |
| 2026-04-20 21:18 | 51.47581 | -0.47272 | 90 ft | 22 kts | 270° |
| 2026-04-20 21:18 | 51.47581 | -0.47492 | 90 ft | 19 kts | 269° |
| 2026-04-20 21:19 | 51.47580 | -0.47720 | 90 ft | 22 kts | 270° |
| 2026-04-20 21:19 | 51.47580 | -0.47964 | 90 ft | 21 kts | 269° |
| 2026-04-20 21:19 | 51.47579 | -0.48184 | 90 ft | 18 kts | 270° |
| 2026-04-20 21:20 | 51.47492 | -0.48530 | 89 ft | 18 kts | 246° |
| 2026-04-20 21:20 | 51.47486 | -0.48727 | 87 ft | 15 kts | 270° |
| 2026-04-20 21:20 | 51.47465 | -0.48825 | 88 ft | 9 kts | 194° |
| 2026-04-20 21:20 | 51.47414 | -0.48829 | 86 ft | 2 kts | 180° |
| 2026-04-20 21:21 | 51.47404 | -0.48829 | 86 ft | 0 kts | 180° |